This is the latest recevied weather packets stored in our database for station/object K0WXC-1. If no packets are shown the sender has not sent any weather packets the latest 10 day(s).
| Time | Temp. | Humidity | Pressure | Rain* | Wind** | Luminosity | Snow |
|---|---|---|---|---|---|---|---|
| 1777039948 | 11.11° C | 97% | 995.3 hPa | 0 mm | 0.89 m/s, 2° | - | - |
| 1777039888 | 11.11° C | 97% | 995.3 hPa | 0 mm | 0.89 m/s, 2° | - | - |
| 1777039828 | 11.67° C | 97% | 995.2 hPa | 0 mm | 1.79 m/s, 340° | - | - |
| 1777039768 | 11.67° C | 97% | 995.2 hPa | 0 mm | 1.79 m/s, 340° | - | - |
| 1777039708 | 11.67° C | 97% | 995.2 hPa | 0 mm | 1.79 m/s, 340° | - | - |
| 1777039648 | 11.67° C | 97% | 995.2 hPa | 0 mm | 1.79 m/s, 340° | - | - |
| 1777039588 | 11.67° C | 97% | 995.2 hPa | 0 mm | 1.79 m/s, 340° | - | - |
| 1777039528 | 11.67° C | 98% | 995.1 hPa | 0 mm | 2.68 m/s, 10° | - | - |
| 1777039468 | 11.67° C | 98% | 995.1 hPa | 0 mm | 2.68 m/s, 10° | - | - |
| 1777039408 | 11.67° C | 98% | 995.1 hPa | 0 mm | 2.68 m/s, 10° | - | - |
| 1777039348 | 11.67° C | 98% | 995.1 hPa | 0 mm | 2.68 m/s, 10° | - | - |
| 1777039288 | 11.67° C | 98% | 995.1 hPa | 0 mm | 2.68 m/s, 10° | - | - |
| 1777039228 | 12.78° C | 98% | 994.7 hPa | 0 mm | 3.58 m/s, 321° | - | - |
| 1777039168 | 12.78° C | 98% | 994.7 hPa | 0 mm | 3.58 m/s, 321° | - | - |
| 1777039108 | 12.78° C | 98% | 994.7 hPa | 0 mm | 3.58 m/s, 321° | - | - |
| 1777039048 | 12.78° C | 98% | 994.7 hPa | 0 mm | 3.58 m/s, 321° | - | - |
| 1777038988 | 12.78° C | 98% | 994.7 hPa | 0 mm | 3.58 m/s, 321° | - | - |
| 1777038928 | 14.44° C | 99% | 994.7 hPa | 0 mm | 0.45 m/s, 5° | - | - |
| 1777038868 | 14.44° C | 99% | 994.7 hPa | 0 mm | 0.45 m/s, 5° | - | - |
| 1777038808 | 14.44° C | 99% | 994.7 hPa | 0 mm | 0.45 m/s, 5° | - | - |
| 1777038748 | 14.44° C | 99% | 994.7 hPa | 0 mm | 0.45 m/s, 5° | - | - |
| 1777038688 | 14.44° C | 99% | 994.7 hPa | 0 mm | 0.45 m/s, 5° | - | - |
| 1777038628 | 14.44° C | 99% | 994.3 hPa | 0 mm | 1.79 m/s, 11° | - | - |
| 1777038568 | 14.44° C | 99% | 994.3 hPa | 0 mm | 1.79 m/s, 11° | - | - |
| 1777038508 | 14.44° C | 99% | 994.3 hPa | 0 mm | 1.79 m/s, 11° | - | - |
* Rain latest hour (hover to see other rain measurements)
** Current wind speed in m/s (hover to see current wind gust speed)